sensor_id;sensor_type;location;lat;lon;timestamp;P1;durP1;ratioP1;P2;durP2;ratioP2
4724;SDS011;2376;53.544;10.226;2023-02-01T00:01:49;9.53;;;2.97;;
4724;SDS011;2376;53.544;10.226;2023-02-01T00:04:16;12.40;;;2.80;;
4724;SDS011;2376;53.544;10.226;2023-02-01T00:06:43;11.63;;;2.93;;
4724;SDS011;2376;53.544;10.226;2023-02-01T00:09:09;16.57;;;3.33;;
4724;SDS011;2376;53.544;10.226;2023-02-01T00:11:38;22.90;;;3.67;;
4724;SDS011;2376;53.544;10.226;2023-02-01T00:14:05;10.93;;;3.27;;
4724;SDS011;2376;53.544;10.226;2023-02-01T00:16:33;18.10;;;3.10;;
4724;SDS011;2376;53.544;10.226;2023-02-01T00:19:00;16.93;;;4.07;;
4724;SDS011;2376;53.544;10.226;2023-02-01T00:21:29;14.17;;;4.40;;
4724;SDS011;2376;53.544;10.226;2023-02-01T00:23:56;6.83;;;2.77;;
4724;SDS011;2376;53.544;10.226;2023-02-01T00:26:25;11.93;;;3.40;;
4724;SDS011;2376;53.544;10.226;2023-02-01T00:28:58;18.43;;;4.23;;
4724;SDS011;2376;53.544;10.226;2023-02-01T00:31:26;14.37;;;3.30;;
4724;SDS011;2376;53.544;10.226;2023-02-01T00:33:52;17.97;;;3.20;;
4724;SDS011;2376;53.544;10.226;2023-02-01T00:36:19;13.23;;;3.70;;
4724;SDS011;2376;53.544;10.226;2023-02-01T00:38:46;12.23;;;4.97;;
4724;SDS011;2376;53.544;10.226;2023-02-01T00:41:14;19.80;;;3.60;;
4724;SDS011;2376;53.544;10.226;2023-02-01T00:43:42;12.87;;;2.90;;
4724;SDS011;2376;53.544;10.226;2023-02-01T00:46:11;11.07;;;3.47;;
4724;SDS011;2376;53.544;10.226;2023-02-01T00:48:39;11.43;;;3.40;;
4724;SDS011;2376;53.544;10.226;2023-02-01T00:51:06;15.87;;;4.10;;
4724;SDS011;2376;53.544;10.226;2023-02-01T00:53:35;16.80;;;3.40;;
4724;SDS011;2376;53.544;10.226;2023-02-01T00:56:02;18.23;;;3.77;;
4724;SDS011;2376;53.544;10.226;2023-02-01T00:58:30;17.90;;;4.60;;
4724;SDS011;2376;53.544;10.226;2023-02-01T01:01:00;30.60;;;5.73;;
4724;SDS011;2376;53.544;10.226;2023-02-01T01:03:30;25.03;;;4.03;;
4724;SDS011;2376;53.544;10.226;2023-02-01T01:05:59;15.27;;;3.23;;
4724;SDS011;2376;53.544;10.226;2023-02-01T01:08:28;14.37;;;4.37;;
4724;SDS011;2376;53.544;10.226;2023-02-01T01:10:54;11.90;;;3.43;;
4724;SDS011;2376;53.544;10.226;2023-02-01T01:13:21;18.30;;;3.93;;
4724;SDS011;2376;53.544;10.226;2023-02-01T01:15:48;15.53;;;3.70;;
4724;SDS011;2376;53.544;10.226;2023-02-01T01:18:15;22.00;;;4.27;;
4724;SDS011;2376;53.544;10.226;2023-02-01T01:20:43;13.93;;;3.20;;
4724;SDS011;2376;53.544;10.226;2023-02-01T01:23:10;18.27;;;4.40;;
4724;SDS011;2376;53.544;10.226;2023-02-01T01:25:37;13.37;;;3.90;;
4724;SDS011;2376;53.544;10.226;2023-02-01T01:28:05;16.60;;;3.17;;
4724;SDS011;2376;53.544;10.226;2023-02-01T01:30:32;28.67;;;4.20;;
4724;SDS011;2376;53.544;10.226;2023-02-01T01:32:59;18.33;;;4.50;;
4724;SDS011;2376;53.544;10.226;2023-02-01T01:35:28;15.87;;;3.60;;
4724;SDS011;2376;53.544;10.226;2023-02-01T01:37:57;36.77;;;4.40;;
4724;SDS011;2376;53.544;10.226;2023-02-01T01:40:24;22.67;;;5.10;;
4724;SDS011;2376;53.544;10.226;2023-02-01T01:42:51;19.00;;;4.37;;
4724;SDS011;2376;53.544;10.226;2023-02-01T01:45:21;21.00;;;3.63;;
4724;SDS011;2376;53.544;10.226;2023-02-01T01:47:51;20.33;;;4.67;;
4724;SDS011;2376;53.544;10.226;2023-02-01T01:50:20;19.60;;;3.40;;
4724;SDS011;2376;53.544;10.226;2023-02-01T01:52:50;20.50;;;5.27;;
4724;SDS011;2376;53.544;10.226;2023-02-01T01:55:21;15.13;;;4.00;;
4724;SDS011;2376;53.544;10.226;2023-02-01T01:57:51;18.67;;;4.20;;
4724;SDS011;2376;53.544;10.226;2023-02-01T02:00:22;22.33;;;5.50;;
4724;SDS011;2376;53.544;10.226;2023-02-01T02:02:51;24.67;;;5.40;;
4724;SDS011;2376;53.544;10.226;2023-02-01T02:05:23;24.27;;;5.70;;
4724;SDS011;2376;53.544;10.226;2023-02-01T02:07:50;22.13;;;4.90;;
4724;SDS011;2376;53.544;10.226;2023-02-01T02:10:19;17.13;;;4.13;;
4724;SDS011;2376;53.544;10.226;2023-02-01T02:13:08;18.73;;;4.60;;
4724;SDS011;2376;53.544;10.226;2023-02-01T02:15:36;21.63;;;4.87;;
4724;SDS011;2376;53.544;10.226;2023-02-01T02:18:07;24.60;;;4.57;;
4724;SDS011;2376;53.544;10.226;2023-02-01T02:20:45;14.10;;;3.63;;
4724;SDS011;2376;53.544;10.226;2023-02-01T02:23:30;26.53;;;4.47;;
4724;SDS011;2376;53.544;10.226;2023-02-01T02:29:55;24.30;;;4.33;;
4724;SDS011;2376;53.544;10.226;2023-02-01T02:32:54;18.40;;;3.97;;
4724;SDS011;2376;53.544;10.226;2023-02-01T02:35:56;28.17;;;4.90;;
4724;SDS011;2376;53.544;10.226;2023-02-01T02:38:30;17.10;;;4.20;;
4724;SDS011;2376;53.544;10.226;2023-02-01T02:41:02;19.60;;;3.73;;
4724;SDS011;2376;53.544;10.226;2023-02-01T02:43:37;18.73;;;5.03;;
4724;SDS011;2376;53.544;10.226;2023-02-01T02:46:32;19.73;;;3.87;;
4724;SDS011;2376;53.544;10.226;2023-02-01T02:49:20;24.80;;;4.60;;
4724;SDS011;2376;53.544;10.226;2023-02-01T02:51:55;27.30;;;5.13;;
4724;SDS011;2376;53.544;10.226;2023-02-01T02:54:45;22.37;;;4.63;;
4724;SDS011;2376;53.544;10.226;2023-02-01T02:57:14;20.50;;;6.23;;
4724;SDS011;2376;53.544;10.226;2023-02-01T03:00:02;21.60;;;4.00;;
4724;SDS011;2376;53.544;10.226;2023-02-01T03:02:49;19.77;;;4.20;;
4724;SDS011;2376;53.544;10.226;2023-02-01T03:05:35;15.80;;;4.10;;
4724;SDS011;2376;53.544;10.226;2023-02-01T03:08:10;19.67;;;3.63;;
4724;SDS011;2376;53.544;10.226;2023-02-01T03:10:41;17.63;;;3.73;;
4724;SDS011;2376;53.544;10.226;2023-02-01T03:13:19;18.97;;;4.50;;
4724;SDS011;2376;53.544;10.226;2023-02-01T03:15:51;34.20;;;4.90;;
4724;SDS011;2376;53.544;10.226;2023-02-01T03:18:26;28.77;;;4.27;;
4724;SDS011;2376;53.544;10.226;2023-02-01T03:20:58;14.93;;;4.10;;
4724;SDS011;2376;53.544;10.226;2023-02-01T03:23:30;33.43;;;4.60;;
4724;SDS011;2376;53.544;10.226;2023-02-01T03:25:59;23.73;;;5.07;;
4724;SDS011;2376;53.544;10.226;2023-02-01T03:28:30;22.63;;;5.20;;
4724;SDS011;2376;53.544;10.226;2023-02-01T03:30:59;31.43;;;5.10;;
4724;SDS011;2376;53.544;10.226;2023-02-01T03:33:27;22.27;;;4.13;;
4724;SDS011;2376;53.544;10.226;2023-02-01T03:35:59;18.97;;;4.63;;
4724;SDS011;2376;53.544;10.226;2023-02-01T03:38:38;15.13;;;4.07;;
4724;SDS011;2376;53.544;10.226;2023-02-01T03:41:12;23.93;;;4.97;;
4724;SDS011;2376;53.544;10.226;2023-02-01T03:43:47;20.97;;;4.93;;
4724;SDS011;2376;53.544;10.226;2023-02-01T03:46:22;12.53;;;3.60;;
4724;SDS011;2376;53.544;10.226;2023-02-01T03:48:57;10.40;;;3.67;;
4724;SDS011;2376;53.544;10.226;2023-02-01T03:51:26;10.60;;;2.97;;
4724;SDS011;2376;53.544;10.226;2023-02-01T03:53:54;11.80;;;2.40;;
4724;SDS011;2376;53.544;10.226;2023-02-01T03:56:23;7.50;;;1.80;;
4724;SDS011;2376;53.544;10.226;2023-02-01T03:58:53;11.17;;;2.63;;
4724;SDS011;2376;53.544;10.226;2023-02-01T04:01:25;12.33;;;2.23;;
4724;SDS011;2376;53.544;10.226;2023-02-01T04:03:53;7.20;;;2.30;;
4724;SDS011;2376;53.544;10.226;2023-02-01T04:06:20;5.77;;;2.23;;
4724;SDS011;2376;53.544;10.226;2023-02-01T04:08:47;5.40;;;1.87;;
4724;SDS011;2376;53.544;10.226;2023-02-01T04:11:15;4.37;;;2.27;;
4724;SDS011;2376;53.544;10.226;2023-02-01T04:13:41;16.93;;;2.50;;
4724;SDS011;2376;53.544;10.226;2023-02-01T04:16:08;9.40;;;2.40;;
4724;SDS011;2376;53.544;10.226;2023-02-01T04:18:35;6.13;;;2.37;;
4724;SDS011;2376;53.544;10.226;2023-02-01T04:21:02;10.70;;;3.07;;
4724;SDS011;2376;53.544;10.226;2023-02-01T04:23:29;17.10;;;2.90;;
4724;SDS011;2376;53.544;10.226;2023-02-01T04:25:58;18.57;;;3.10;;
4724;SDS011;2376;53.544;10.226;2023-02-01T04:28:27;12.30;;;3.40;;
4724;SDS011;2376;53.544;10.226;2023-02-01T04:30:54;16.63;;;3.97;;
4724;SDS011;2376;53.544;10.226;2023-02-01T04:33:21;10.40;;;2.47;;
4724;SDS011;2376;53.544;10.226;2023-02-01T04:35:48;12.10;;;4.10;;
4724;SDS011;2376;53.544;10.226;2023-02-01T04:38:14;17.47;;;2.70;;
4724;SDS011;2376;53.544;10.226;2023-02-01T04:40:41;14.67;;;2.73;;
4724;SDS011;2376;53.544;10.226;2023-02-01T04:43:08;16.27;;;3.10;;
4724;SDS011;2376;53.544;10.226;2023-02-01T04:45:36;13.17;;;3.50;;
4724;SDS011;2376;53.544;10.226;2023-02-01T04:48:03;16.13;;;3.07;;
4724;SDS011;2376;53.544;10.226;2023-02-01T04:50:30;6.50;;;2.23;;
4724;SDS011;2376;53.544;10.226;2023-02-01T04:52:57;8.33;;;2.47;;
4724;SDS011;2376;53.544;10.226;2023-02-01T04:55:23;10.93;;;2.00;;
4724;SDS011;2376;53.544;10.226;2023-02-01T04:57:50;10.97;;;2.80;;
4724;SDS011;2376;53.544;10.226;2023-02-01T05:00:17;6.90;;;2.47;;
4724;SDS011;2376;53.544;10.226;2023-02-01T05:02:46;6.93;;;2.50;;
4724;SDS011;2376;53.544;10.226;2023-02-01T05:05:12;8.40;;;1.83;;
4724;SDS011;2376;53.544;10.226;2023-02-01T05:07:39;14.37;;;2.20;;
4724;SDS011;2376;53.544;10.226;2023-02-01T05:10:06;7.83;;;1.90;;
4724;SDS011;2376;53.544;10.226;2023-02-01T05:12:34;5.13;;;1.83;;
4724;SDS011;2376;53.544;10.226;2023-02-01T05:15:18;8.43;;;2.90;;
4724;SDS011;2376;53.544;10.226;2023-02-01T05:17:46;7.23;;;2.57;;
4724;SDS011;2376;53.544;10.226;2023-02-01T05:20:13;3.63;;;1.53;;
4724;SDS011;2376;53.544;10.226;2023-02-01T05:22:42;4.27;;;1.53;;
4724;SDS011;2376;53.544;10.226;2023-02-01T05:25:09;3.13;;;1.40;;
4724;SDS011;2376;53.544;10.226;2023-02-01T05:27:35;2.00;;;1.03;;
4724;SDS011;2376;53.544;10.226;2023-02-01T05:30:02;2.30;;;1.30;;
4724;SDS011;2376;53.544;10.226;2023-02-01T05:32:30;1.30;;;0.83;;
4724;SDS011;2376;53.544;10.226;2023-02-01T05:34:58;1.90;;;0.83;;
4724;SDS011;2376;53.544;10.226;2023-02-01T05:37:25;1.93;;;0.80;;
4724;SDS011;2376;53.544;10.226;2023-02-01T05:39:52;2.10;;;0.80;;
4724;SDS011;2376;53.544;10.226;2023-02-01T05:42:19;2.10;;;0.70;;
4724;SDS011;2376;53.544;10.226;2023-02-01T05:44:45;1.83;;;0.80;;
4724;SDS011;2376;53.544;10.226;2023-02-01T05:47:12;1.87;;;0.80;;
4724;SDS011;2376;53.544;10.226;2023-02-01T05:49:39;1.70;;;0.70;;
4724;SDS011;2376;53.544;10.226;2023-02-01T05:52:07;1.60;;;0.70;;
4724;SDS011;2376;53.544;10.226;2023-02-01T05:54:34;4.00;;;1.10;;
4724;SDS011;2376;53.544;10.226;2023-02-01T05:57:00;0.80;;;0.80;;
4724;SDS011;2376;53.544;10.226;2023-02-01T05:59:27;1.33;;;1.10;;
4724;SDS011;2376;53.544;10.226;2023-02-01T06:01:54;1.03;;;0.80;;
4724;SDS011;2376;53.544;10.226;2023-02-01T06:04:21;0.67;;;0.53;;
4724;SDS011;2376;53.544;10.226;2023-02-01T06:06:47;1.57;;;0.80;;
4724;SDS011;2376;53.544;10.226;2023-02-01T06:09:17;0.63;;;0.60;;
4724;SDS011;2376;53.544;10.226;2023-02-01T06:11:43;2.03;;;1.60;;
4724;SDS011;2376;53.544;10.226;2023-02-01T06:14:10;3.23;;;1.00;;
4724;SDS011;2376;53.544;10.226;2023-02-01T06:16:37;0.87;;;0.70;;
4724;SDS011;2376;53.544;10.226;2023-02-01T06:19:04;2.53;;;0.80;;
4724;SDS011;2376;53.544;10.226;2023-02-01T06:21:31;1.30;;;0.70;;
4724;SDS011;2376;53.544;10.226;2023-02-01T06:23:59;2.20;;;0.93;;
4724;SDS011;2376;53.544;10.226;2023-02-01T06:26:27;1.10;;;1.00;;
4724;SDS011;2376;53.544;10.226;2023-02-01T06:28:54;0.70;;;0.70;;
4724;SDS011;2376;53.544;10.226;2023-02-01T06:31:21;1.17;;;1.17;;
4724;SDS011;2376;53.544;10.226;2023-02-01T06:33:48;2.83;;;0.97;;
4724;SDS011;2376;53.544;10.226;2023-02-01T06:36:15;1.63;;;0.90;;
4724;SDS011;2376;53.544;10.226;2023-02-01T06:38:43;1.00;;;0.90;;
4724;SDS011;2376;53.544;10.226;2023-02-01T06:41:10;3.03;;;1.37;;
4724;SDS011;2376;53.544;10.226;2023-02-01T06:43:38;3.07;;;1.37;;
4724;SDS011;2376;53.544;10.226;2023-02-01T06:46:06;1.83;;;1.00;;
4724;SDS011;2376;53.544;10.226;2023-02-01T06:48:35;3.23;;;1.50;;
4724;SDS011;2376;53.544;10.226;2023-02-01T06:51:02;2.80;;;1.40;;
4724;SDS011;2376;53.544;10.226;2023-02-01T06:53:29;8.23;;;2.00;;
4724;SDS011;2376;53.544;10.226;2023-02-01T06:55:57;4.83;;;1.80;;
4724;SDS011;2376;53.544;10.226;2023-02-01T06:58:27;3.43;;;1.47;;
4724;SDS011;2376;53.544;10.226;2023-02-01T07:00:56;4.77;;;1.37;;
4724;SDS011;2376;53.544;10.226;2023-02-01T07:03:22;7.03;;;2.10;;
4724;SDS011;2376;53.544;10.226;2023-02-01T07:05:49;6.87;;;1.90;;
4724;SDS011;2376;53.544;10.226;2023-02-01T07:08:16;2.03;;;1.40;;
4724;SDS011;2376;53.544;10.226;2023-02-01T07:10:42;4.73;;;1.33;;
4724;SDS011;2376;53.544;10.226;2023-02-01T07:13:09;10.63;;;2.23;;
4724;SDS011;2376;53.544;10.226;2023-02-01T07:15:36;21.63;;;2.73;;
4724;SDS011;2376;53.544;10.226;2023-02-01T07:18:04;2.67;;;1.57;;
4724;SDS011;2376;53.544;10.226;2023-02-01T07:20:31;8.03;;;2.50;;
4724;SDS011;2376;53.544;10.226;2023-02-01T07:22:57;8.83;;;1.90;;
4724;SDS011;2376;53.544;10.226;2023-02-01T07:25:24;18.30;;;5.00;;
4724;SDS011;2376;53.544;10.226;2023-02-01T07:27:51;8.83;;;2.83;;
4724;SDS011;2376;53.544;10.226;2023-02-01T07:30:17;7.07;;;2.63;;
4724;SDS011;2376;53.544;10.226;2023-02-01T07:32:44;10.97;;;1.70;;
4724;SDS011;2376;53.544;10.226;2023-02-01T07:35:12;9.70;;;2.30;;
4724;SDS011;2376;53.544;10.226;2023-02-01T07:37:39;17.00;;;3.40;;
4724;SDS011;2376;53.544;10.226;2023-02-01T07:40:06;20.10;;;3.40;;
4724;SDS011;2376;53.544;10.226;2023-02-01T07:42:34;11.20;;;2.50;;
4724;SDS011;2376;53.544;10.226;2023-02-01T07:45:00;21.73;;;3.33;;
4724;SDS011;2376;53.544;10.226;2023-02-01T07:47:28;18.90;;;3.80;;
4724;SDS011;2376;53.544;10.226;2023-02-01T07:49:55;12.73;;;2.83;;
4724;SDS011;2376;53.544;10.226;2023-02-01T07:52:23;7.90;;;2.33;;
4724;SDS011;2376;53.544;10.226;2023-02-01T07:54:49;13.30;;;3.00;;
4724;SDS011;2376;53.544;10.226;2023-02-01T07:57:16;8.70;;;2.57;;
4724;SDS011;2376;53.544;10.226;2023-02-01T07:59:43;7.37;;;2.07;;
4724;SDS011;2376;53.544;10.226;2023-02-01T08:02:23;8.00;;;1.97;;
4724;SDS011;2376;53.544;10.226;2023-02-01T08:04:50;16.57;;;2.80;;
4724;SDS011;2376;53.544;10.226;2023-02-01T08:07:17;12.03;;;2.43;;
4724;SDS011;2376;53.544;10.226;2023-02-01T08:09:45;15.63;;;2.90;;
4724;SDS011;2376;53.544;10.226;2023-02-01T08:12:11;16.93;;;3.17;;
4724;SDS011;2376;53.544;10.226;2023-02-01T08:14:38;11.13;;;3.27;;
4724;SDS011;2376;53.544;10.226;2023-02-01T08:17:05;18.87;;;3.70;;
4724;SDS011;2376;53.544;10.226;2023-02-01T08:19:32;16.37;;;3.57;;
4724;SDS011;2376;53.544;10.226;2023-02-01T08:21:59;15.93;;;3.80;;
4724;SDS011;2376;53.544;10.226;2023-02-01T08:24:31;14.13;;;3.27;;
4724;SDS011;2376;53.544;10.226;2023-02-01T08:26:59;24.13;;;4.47;;
4724;SDS011;2376;53.544;10.226;2023-02-01T08:29:26;28.00;;;5.13;;
4724;SDS011;2376;53.544;10.226;2023-02-01T08:31:53;22.10;;;4.83;;
4724;SDS011;2376;53.544;10.226;2023-02-01T08:34:20;17.90;;;3.67;;
4724;SDS011;2376;53.544;10.226;2023-02-01T08:36:46;20.87;;;4.27;;
4724;SDS011;2376;53.544;10.226;2023-02-01T08:39:13;13.80;;;3.67;;
4724;SDS011;2376;53.544;10.226;2023-02-01T08:41:40;17.37;;;4.27;;
4724;SDS011;2376;53.544;10.226;2023-02-01T08:44:28;26.47;;;5.63;;
4724;SDS011;2376;53.544;10.226;2023-02-01T08:46:55;21.70;;;6.23;;
4724;SDS011;2376;53.544;10.226;2023-02-01T08:49:22;24.07;;;3.93;;
4724;SDS011;2376;53.544;10.226;2023-02-01T08:51:48;15.93;;;4.10;;
4724;SDS011;2376;53.544;10.226;2023-02-01T08:54:15;10.10;;;3.27;;
4724;SDS011;2376;53.544;10.226;2023-02-01T08:56:42;17.77;;;4.00;;
4724;SDS011;2376;53.544;10.226;2023-02-01T08:59:08;16.43;;;3.47;;
4724;SDS011;2376;53.544;10.226;2023-02-01T09:01:36;13.10;;;3.10;;
4724;SDS011;2376;53.544;10.226;2023-02-01T09:04:03;20.70;;;4.13;;
4724;SDS011;2376;53.544;10.226;2023-02-01T09:06:30;23.03;;;3.73;;
4724;SDS011;2376;53.544;10.226;2023-02-01T09:08:57;11.10;;;3.37;;
4724;SDS011;2376;53.544;10.226;2023-02-01T09:11:24;11.83;;;3.03;;
4724;SDS011;2376;53.544;10.226;2023-02-01T09:13:51;12.23;;;2.90;;
4724;SDS011;2376;53.544;10.226;2023-02-01T09:16:18;19.53;;;4.60;;
4724;SDS011;2376;53.544;10.226;2023-02-01T09:18:46;24.50;;;3.93;;
4724;SDS011;2376;53.544;10.226;2023-02-01T09:21:12;23.77;;;5.40;;
4724;SDS011;2376;53.544;10.226;2023-02-01T09:23:39;19.07;;;4.30;;
4724;SDS011;2376;53.544;10.226;2023-02-01T09:26:06;16.17;;;4.50;;
4724;SDS011;2376;53.544;10.226;2023-02-01T09:28:33;17.77;;;4.33;;
4724;SDS011;2376;53.544;10.226;2023-02-01T09:31:00;16.60;;;3.13;;
4724;SDS011;2376;53.544;10.226;2023-02-01T09:33:27;21.43;;;3.60;;
4724;SDS011;2376;53.544;10.226;2023-02-01T09:35:56;28.40;;;4.63;;
4724;SDS011;2376;53.544;10.226;2023-02-01T09:38:24;16.60;;;4.20;;
4724;SDS011;2376;53.544;10.226;2023-02-01T09:40:52;23.30;;;3.57;;
4724;SDS011;2376;53.544;10.226;2023-02-01T09:43:26;19.70;;;4.90;;
4724;SDS011;2376;53.544;10.226;2023-02-01T09:46:06;19.10;;;3.60;;
4724;SDS011;2376;53.544;10.226;2023-02-01T09:48:44;14.17;;;5.13;;
4724;SDS011;2376;53.544;10.226;2023-02-01T09:51:14;24.00;;;4.30;;
4724;SDS011;2376;53.544;10.226;2023-02-01T09:53:47;16.23;;;3.70;;
4724;SDS011;2376;53.544;10.226;2023-02-01T09:56:22;15.37;;;3.20;;
4724;SDS011;2376;53.544;10.226;2023-02-01T09:58:55;12.63;;;3.20;;
4724;SDS011;2376;53.544;10.226;2023-02-01T10:01:27;21.20;;;3.77;;
4724;SDS011;2376;53.544;10.226;2023-02-01T10:03:57;15.27;;;3.17;;
4724;SDS011;2376;53.544;10.226;2023-02-01T10:06:33;16.53;;;3.30;;
4724;SDS011;2376;53.544;10.226;2023-02-01T10:09:20;20.70;;;3.97;;
4724;SDS011;2376;53.544;10.226;2023-02-01T10:14:59;27.27;;;4.40;;
4724;SDS011;2376;53.544;10.226;2023-02-01T10:17:40;8.20;;;3.50;;
4724;SDS011;2376;53.544;10.226;2023-02-01T10:20:16;16.67;;;4.07;;
4724;SDS011;2376;53.544;10.226;2023-02-01T10:22:54;12.40;;;3.50;;
4724;SDS011;2376;53.544;10.226;2023-02-01T10:25:32;23.07;;;4.87;;
4724;SDS011;2376;53.544;10.226;2023-02-01T10:28:04;16.40;;;3.93;;
4724;SDS011;2376;53.544;10.226;2023-02-01T10:30:35;17.27;;;2.80;;
4724;SDS011;2376;53.544;10.226;2023-02-01T10:33:12;15.70;;;3.33;;
4724;SDS011;2376;53.544;10.226;2023-02-01T10:35:42;16.47;;;4.00;;
4724;SDS011;2376;53.544;10.226;2023-02-01T10:38:15;15.37;;;3.33;;
4724;SDS011;2376;53.544;10.226;2023-02-01T10:40:46;26.63;;;3.90;;
4724;SDS011;2376;53.544;10.226;2023-02-01T10:43:13;13.73;;;3.53;;
4724;SDS011;2376;53.544;10.226;2023-02-01T10:45:40;10.33;;;3.57;;
4724;SDS011;2376;53.544;10.226;2023-02-01T10:48:08;11.93;;;3.33;;
4724;SDS011;2376;53.544;10.226;2023-02-01T10:50:35;16.13;;;2.80;;
4724;SDS011;2376;53.544;10.226;2023-02-01T10:53:06;17.53;;;3.23;;
4724;SDS011;2376;53.544;10.226;2023-02-01T10:55:40;13.43;;;3.40;;
4724;SDS011;2376;53.544;10.226;2023-02-01T10:58:14;14.30;;;3.50;;
4724;SDS011;2376;53.544;10.226;2023-02-01T11:00:43;9.70;;;3.27;;
4724;SDS011;2376;53.544;10.226;2023-02-01T11:03:22;20.10;;;4.40;;
4724;SDS011;2376;53.544;10.226;2023-02-01T11:05:59;14.83;;;3.20;;
4724;SDS011;2376;53.544;10.226;2023-02-01T11:08:27;13.83;;;3.07;;
4724;SDS011;2376;53.544;10.226;2023-02-01T11:10:58;14.43;;;3.03;;
4724;SDS011;2376;53.544;10.226;2023-02-01T11:13:30;15.23;;;3.60;;
4724;SDS011;2376;53.544;10.226;2023-02-01T11:16:01;20.90;;;3.03;;
4724;SDS011;2376;53.544;10.226;2023-02-01T11:18:30;13.53;;;2.90;;
4724;SDS011;2376;53.544;10.226;2023-02-01T11:21:00;18.07;;;3.50;;
4724;SDS011;2376;53.544;10.226;2023-02-01T11:23:28;16.03;;;3.70;;
4724;SDS011;2376;53.544;10.226;2023-02-01T11:26:01;15.10;;;3.00;;
4724;SDS011;2376;53.544;10.226;2023-02-01T11:28:35;14.57;;;3.33;;
4724;SDS011;2376;53.544;10.226;2023-02-01T11:31:08;14.60;;;3.93;;
4724;SDS011;2376;53.544;10.226;2023-02-01T11:33:37;14.10;;;3.23;;
4724;SDS011;2376;53.544;10.226;2023-02-01T11:36:10;13.97;;;3.37;;
4724;SDS011;2376;53.544;10.226;2023-02-01T11:38:40;11.17;;;2.93;;
4724;SDS011;2376;53.544;10.226;2023-02-01T11:41:17;14.20;;;2.80;;
4724;SDS011;2376;53.544;10.226;2023-02-01T11:43:51;13.63;;;4.30;;
4724;SDS011;2376;53.544;10.226;2023-02-01T11:46:22;9.20;;;2.93;;
4724;SDS011;2376;53.544;10.226;2023-02-01T11:48:52;12.57;;;3.40;;
4724;SDS011;2376;53.544;10.226;2023-02-01T11:51:22;14.13;;;3.20;;
4724;SDS011;2376;53.544;10.226;2023-02-01T11:54:02;18.50;;;3.77;;
4724;SDS011;2376;53.544;10.226;2023-02-01T11:57:08;20.57;;;3.87;;
4724;SDS011;2376;53.544;10.226;2023-02-01T11:59:52;11.20;;;2.93;;
4724;SDS011;2376;53.544;10.226;2023-02-01T12:05:46;18.50;;;3.70;;
4724;SDS011;2376;53.544;10.226;2023-02-01T12:08:28;12.33;;;3.07;;
4724;SDS011;2376;53.544;10.226;2023-02-01T12:11:14;13.77;;;2.80;;
4724;SDS011;2376;53.544;10.226;2023-02-01T12:13:58;11.50;;;2.30;;
4724;SDS011;2376;53.544;10.226;2023-02-01T12:16:31;8.13;;;2.73;;
4724;SDS011;2376;53.544;10.226;2023-02-01T12:22:08;13.93;;;3.13;;
4724;SDS011;2376;53.544;10.226;2023-02-01T12:24:48;11.10;;;2.40;;
4724;SDS011;2376;53.544;10.226;2023-02-01T12:27:40;7.03;;;2.30;;
4724;SDS011;2376;53.544;10.226;2023-02-01T12:30:22;19.37;;;2.67;;
4724;SDS011;2376;53.544;10.226;2023-02-01T12:33:16;5.60;;;1.97;;
4724;SDS011;2376;53.544;10.226;2023-02-01T12:35:58;6.50;;;1.93;;
4724;SDS011;2376;53.544;10.226;2023-02-01T12:38:40;4.87;;;1.87;;
4724;SDS011;2376;53.544;10.226;2023-02-01T12:41:19;2.67;;;1.60;;
4724;SDS011;2376;53.544;10.226;2023-02-01T12:44:00;10.17;;;2.20;;
4724;SDS011;2376;53.544;10.226;2023-02-01T12:46:35;8.73;;;2.10;;
4724;SDS011;2376;53.544;10.226;2023-02-01T12:49:08;2.43;;;1.63;;
4724;SDS011;2376;53.544;10.226;2023-02-01T12:51:41;5.93;;;1.30;;
4724;SDS011;2376;53.544;10.226;2023-02-01T12:54:11;3.80;;;1.40;;
4724;SDS011;2376;53.544;10.226;2023-02-01T12:56:44;2.90;;;1.23;;
4724;SDS011;2376;53.544;10.226;2023-02-01T12:59:16;3.13;;;1.23;;
4724;SDS011;2376;53.544;10.226;2023-02-01T13:01:48;1.67;;;0.93;;
4724;SDS011;2376;53.544;10.226;2023-02-01T13:04:24;1.90;;;1.10;;
4724;SDS011;2376;53.544;10.226;2023-02-01T13:06:53;1.00;;;1.00;;
4724;SDS011;2376;53.544;10.226;2023-02-01T13:09:25;1.20;;;1.00;;
4724;SDS011;2376;53.544;10.226;2023-02-01T13:11:55;1.23;;;1.00;;
4724;SDS011;2376;53.544;10.226;2023-02-01T13:14:27;2.43;;;1.53;;
4724;SDS011;2376;53.544;10.226;2023-02-01T13:17:09;1.10;;;0.87;;
4724;SDS011;2376;53.544;10.226;2023-02-01T13:19:41;1.63;;;1.00;;
4724;SDS011;2376;53.544;10.226;2023-02-01T13:22:12;2.87;;;0.90;;
4724;SDS011;2376;53.544;10.226;2023-02-01T13:24:43;0.80;;;0.80;;
4724;SDS011;2376;53.544;10.226;2023-02-01T13:27:14;1.43;;;0.80;;
4724;SDS011;2376;53.544;10.226;2023-02-01T13:29:44;7.10;;;1.13;;
4724;SDS011;2376;53.544;10.226;2023-02-01T13:32:23;1.00;;;0.83;;
4724;SDS011;2376;53.544;10.226;2023-02-01T13:35:18;3.47;;;0.90;;
4724;SDS011;2376;53.544;10.226;2023-02-01T13:38:26;3.00;;;0.80;;
4724;SDS011;2376;53.544;10.226;2023-02-01T13:41:21;1.80;;;1.03;;
4724;SDS011;2376;53.544;10.226;2023-02-01T13:43:53;2.10;;;0.90;;
4724;SDS011;2376;53.544;10.226;2023-02-01T13:46:22;1.50;;;1.13;;
4724;SDS011;2376;53.544;10.226;2023-02-01T13:48:51;2.10;;;1.00;;
4724;SDS011;2376;53.544;10.226;2023-02-01T13:51:31;2.77;;;0.70;;
4724;SDS011;2376;53.544;10.226;2023-02-01T13:54:01;1.97;;;1.00;;
4724;SDS011;2376;53.544;10.226;2023-02-01T13:56:32;2.80;;;1.00;;
4724;SDS011;2376;53.544;10.226;2023-02-01T14:05:06;4.33;;;1.30;;
4724;SDS011;2376;53.544;10.226;2023-02-01T14:07:34;6.83;;;1.20;;
4724;SDS011;2376;53.544;10.226;2023-02-01T14:13:05;2.97;;;1.50;;
4724;SDS011;2376;53.544;10.226;2023-02-01T14:15:39;3.67;;;1.50;;
4724;SDS011;2376;53.544;10.226;2023-02-01T14:21:26;5.90;;;1.63;;
4724;SDS011;2376;53.544;10.226;2023-02-01T14:23:56;2.73;;;1.20;;
4724;SDS011;2376;53.544;10.226;2023-02-01T14:26:25;2.13;;;0.97;;
4724;SDS011;2376;53.544;10.226;2023-02-01T14:29:12;3.50;;;1.33;;
4724;SDS011;2376;53.544;10.226;2023-02-01T14:31:50;1.03;;;0.80;;
4724;SDS011;2376;53.544;10.226;2023-02-01T14:34:24;1.60;;;1.50;;
4724;SDS011;2376;53.544;10.226;2023-02-01T14:36:59;3.77;;;0.97;;
4724;SDS011;2376;53.544;10.226;2023-02-01T14:39:32;0.97;;;0.97;;
4724;SDS011;2376;53.544;10.226;2023-02-01T14:42:05;1.10;;;0.93;;
4724;SDS011;2376;53.544;10.226;2023-02-01T14:44:44;5.87;;;1.30;;
4724;SDS011;2376;53.544;10.226;2023-02-01T14:50:03;3.43;;;1.20;;
4724;SDS011;2376;53.544;10.226;2023-02-01T14:52:40;1.67;;;1.30;;
4724;SDS011;2376;53.544;10.226;2023-02-01T14:55:15;5.80;;;1.10;;
4724;SDS011;2376;53.544;10.226;2023-02-01T14:57:45;2.47;;;0.90;;
4724;SDS011;2376;53.544;10.226;2023-02-01T15:00:17;1.90;;;0.93;;
4724;SDS011;2376;53.544;10.226;2023-02-01T15:02:47;2.83;;;1.23;;
4724;SDS011;2376;53.544;10.226;2023-02-01T15:05:22;7.30;;;2.00;;
4724;SDS011;2376;53.544;10.226;2023-02-01T15:08:03;3.30;;;2.00;;
4724;SDS011;2376;53.544;10.226;2023-02-01T15:10:33;4.67;;;2.17;;
4724;SDS011;2376;53.544;10.226;2023-02-01T15:13:12;2.80;;;1.40;;
4724;SDS011;2376;53.544;10.226;2023-02-01T15:15:58;5.00;;;1.03;;
4724;SDS011;2376;53.544;10.226;2023-02-01T15:18:26;5.53;;;1.30;;
4724;SDS011;2376;53.544;10.226;2023-02-01T15:20:55;9.73;;;1.97;;
4724;SDS011;2376;53.544;10.226;2023-02-01T15:23:24;3.57;;;1.63;;
4724;SDS011;2376;53.544;10.226;2023-02-01T15:25:51;5.73;;;1.67;;
4724;SDS011;2376;53.544;10.226;2023-02-01T15:28:18;8.13;;;2.30;;
4724;SDS011;2376;53.544;10.226;2023-02-01T15:30:53;8.63;;;1.83;;
4724;SDS011;2376;53.544;10.226;2023-02-01T15:33:21;10.33;;;1.80;;
4724;SDS011;2376;53.544;10.226;2023-02-01T15:35:48;12.50;;;2.27;;
4724;SDS011;2376;53.544;10.226;2023-02-01T15:38:32;6.53;;;1.83;;
4724;SDS011;2376;53.544;10.226;2023-02-01T15:41:02;5.27;;;2.20;;
4724;SDS011;2376;53.544;10.226;2023-02-01T15:43:33;15.20;;;2.70;;
4724;SDS011;2376;53.544;10.226;2023-02-01T15:46:03;11.07;;;2.30;;